Time;durP1;ratioP1;P1;durP2;ratioP2;P2;SDS_P1;SDS_P2;PMS_P1;PMS_P2;Temp;Humidity;BMP_temperature;BMP_pressure;BME280_temperature;BME280_humidity;BME280_pressure;Samples;Min_cycle;Max_cycle;Signal;HPM_P1;HPM_P2
2023/01/24 00:01:53;;;;;;;31.02;19.67;;;;;;;1.19;100.00;103638.25;5053196;28;20357;-73
2023/01/24 00:04:19;;;;;;;31.25;19.40;;;;;;;1.19;100.00;103639.19;5052874;28;20064;-73
2023/01/24 00:06:44;;;;;;;31.23;19.27;;;;;;;1.19;100.00;103638.25;5053166;28;20033;-73
2023/01/24 00:09:09;;;;;;;31.80;19.38;;;;;;;1.19;100.00;103635.63;5052890;28;20048;-73
2023/01/24 00:11:35;;;;;;;30.60;18.45;;;;;;;1.18;100.00;103631.19;5053064;28;20032;-73
2023/01/24 00:14:00;;;;;;;29.50;17.98;;;;;;;1.21;100.00;103635.00;5052738;28;20021;-73
2023/01/24 00:16:25;;;;;;;30.20;18.35;;;;;;;1.23;100.00;103627.31;5053058;28;20068;-73
2023/01/24 00:18:51;;;;;;;30.77;19.05;;;;;;;1.19;100.00;103641.78;5052693;28;20021;-73
2023/01/24 00:21:21;;;;;;;30.80;19.02;;;;;;;1.17;100.00;103640.72;5052659;28;20033;-73
2023/01/24 00:23:49;;;;;;;31.60;18.98;;;;;;;1.20;100.00;103645.28;5052711;28;20127;-74
2023/01/24 00:26:16;;;;;;;30.55;19.40;;;;;;;1.17;100.00;103637.22;5052595;28;20029;-74
2023/01/24 00:28:42;;;;;;;30.95;18.73;;;;;;;1.18;100.00;103633.81;5052516;28;20033;-74
2023/01/24 00:31:07;;;;;;;31.30;19.17;;;;;;;1.15;100.00;103625.72;5052777;28;20033;-73
2023/01/24 00:33:34;;;;;;;30.45;19.10;;;;;;;1.16;100.00;103622.34;5052512;28;20017;-77
2023/01/24 00:36:00;;;;;;;30.70;18.63;;;;;;;1.16;100.00;103622.34;5052572;28;20083;-73
2023/01/24 00:38:29;;;;;;;30.38;19.17;;;;;;;1.16;100.00;103624.94;5052617;28;20033;-73
2023/01/24 00:40:54;;;;;;;30.58;18.75;;;;;;;1.20;100.00;103617.53;5048578;28;20028;-74
2023/01/24 00:43:19;;;;;;;31.05;19.52;;;;;;;1.19;100.00;103615.72;5052484;28;20032;-73
2023/01/24 00:45:46;;;;;;;31.77;19.98;;;;;;;1.17;100.00;103613.75;5034704;28;20032;-82
2023/01/24 00:48:11;;;;;;;31.58;19.52;;;;;;;1.15;100.00;103603.22;5051561;28;20033;-73
2023/01/24 00:50:37;;;;;;;31.45;19.80;;;;;;;1.14;100.00;103605.69;5052303;28;20079;-74
2023/01/24 00:53:03;;;;;;;31.88;20.17;;;;;;;1.13;100.00;103604.75;5052476;28;20025;-74
2023/01/24 00:55:28;;;;;;;31.30;19.98;;;;;;;1.15;100.00;103615.31;5052354;28;20029;-74
2023/01/24 00:57:54;;;;;;;31.70;19.75;;;;;;;1.15;100.00;103607.47;5034418;28;20476;-73
2023/01/24 01:00:20;;;;;;;31.45;19.65;;;;;;;1.14;100.00;103609.19;5052451;28;20025;-73
2023/01/24 01:02:46;;;;;;;31.38;19.77;;;;;;;1.13;100.00;103615.16;5052212;28;20492;-73
2023/01/24 01:05:12;;;;;;;32.13;20.17;;;;;;;1.12;100.00;103609.81;5052542;28;20079;-74
2023/01/24 01:07:37;;;;;;;31.52;19.70;;;;;;;1.12;100.00;103617.66;5052537;28;20037;-73
2023/01/24 01:10:03;;;;;;;30.70;19.42;;;;;;;1.09;100.00;103612.16;5052228;28;20029;-74
2023/01/24 01:12:28;;;;;;;30.40;18.63;;;;;;;1.11;100.00;103602.81;5052309;28;20040;-74
2023/01/24 01:14:54;;;;;;;30.33;18.65;;;;;;;1.06;100.00;103599.78;5052139;28;20021;-86
2023/01/24 01:17:19;;;;;;;28.50;17.25;;;;;;;1.08;100.00;103599.91;5052070;28;20048;-86
2023/01/24 01:19:45;;;;;;;30.15;18.45;;;;;;;1.04;100.00;103597.03;5052257;28;20170;-74
2023/01/24 01:22:10;;;;;;;30.08;18.40;;;;;;;0.99;100.00;103598.34;5051803;28;20060;-73
2023/01/24 01:24:35;;;;;;;29.40;18.17;;;;;;;1.01;100.00;103602.00;5052074;28;20102;-73
2023/01/24 01:27:01;;;;;;;29.77;17.92;;;;;;;0.99;100.00;103594.81;5052154;28;20484;-74
2023/01/24 01:29:26;;;;;;;29.38;17.83;;;;;;;1.04;100.00;103599.66;5051951;28;20033;-74
2023/01/24 01:31:51;;;;;;;30.10;18.02;;;;;;;0.99;100.00;103608.78;5051920;28;20099;-73
2023/01/24 01:34:17;;;;;;;29.30;17.63;;;;;;;1.00;100.00;103613.19;5052218;28;20025;-73
2023/01/24 01:36:42;;;;;;;29.45;18.02;;;;;;;1.01;100.00;103602.00;5051912;28;20120;-74
2023/01/24 01:39:08;;;;;;;29.45;18.15;;;;;;;1.02;100.00;103614.25;5051891;28;20029;-74
2023/01/24 01:41:33;;;;;;;30.02;17.70;;;;;;;1.04;100.00;103607.47;5052046;28;20051;-85
2023/01/24 01:44:37;;;;;;;29.65;17.95;;;;;;;1.12;100.00;103604.63;5051864;28;20071;-77
2023/01/24 01:47:05;;;;;;;29.88;17.83;;;;;;;1.08;100.00;103607.72;5049137;28;20053;-87
2023/01/24 01:49:31;;;;;;;30.50;18.30;;;;;;;1.04;100.00;103602.25;5051822;28;20036;-74
2023/01/24 01:52:02;;;;;;;30.25;18.65;;;;;;;1.06;100.00;103604.09;5051908;28;20387;-74
2023/01/24 01:54:31;;;;;;;30.05;18.55;;;;;;;1.09;100.00;103599.13;5048345;28;20522;-73
2023/01/24 01:57:12;;;;;;;30.35;18.80;;;;;;;1.12;100.00;103595.13;5048072;28;20091;-73
2023/01/24 01:59:48;;;;;;;29.80;18.27;;;;;;;1.14;100.00;103598.75;5052516;28;20065;-74
2023/01/24 02:02:13;;;;;;;31.48;18.58;;;;;;;1.11;100.00;103597.59;5055204;28;20064;-80
2023/01/24 02:04:46;;;;;;;30.75;19.15;;;;;;;1.09;100.00;103593.94;5055459;28;20053;-74
2023/01/24 02:07:20;;;;;;;;;;;;;;;1.10;100.00;103595.75;5055692;28;20060;-77
2023/01/24 02:09:48;;;;;;;31.80;19.42;;;;;;;1.08;100.00;103590.41;5055388;28;19920;-85
2023/01/24 02:12:19;;;;;;;31.23;19.05;;;;;;;1.04;100.00;103597.03;5055248;28;20094;-76
2023/01/24 02:17:32;;;;;;;31.25;19.10;;;;;;;1.09;100.00;103594.84;5052278;28;20498;-85
2023/01/24 02:20:10;;;;;;;31.38;19.70;;;;;;;1.08;100.00;103589.50;5054997;28;20029;-76
2023/01/24 02:23:21;;;;;;;31.50;19.60;;;;;;;1.10;100.00;103593.16;5052193;28;20063;-76
2023/01/24 02:26:04;;;;;;;31.55;19.80;;;;;;;1.10;100.00;103586.25;5053864;28;20052;-77
2023/01/24 02:28:30;;;;;;;31.58;19.88;;;;;;;1.10;100.00;103590.56;5051691;28;20024;-76
2023/01/24 02:30:59;;;;;;;31.05;19.80;;;;;;;1.04;100.00;103597.03;5054684;28;20033;-77
2023/01/24 02:33:25;;;;;;;31.75;20.40;;;;;;;1.04;100.00;103594.44;5050777;28;20017;-76
2023/01/24 02:35:50;;;;;;;32.42;20.60;;;;;;;1.00;100.00;103594.94;5037047;28;20025;-80
2023/01/24 02:38:18;;;;;;;32.67;20.63;;;;;;;1.01;100.00;103588.06;5054529;28;20033;-77
2023/01/24 02:40:45;;;;;;;32.95;20.63;;;;;;;0.98;100.00;103588.69;5054428;28;20435;-77
2023/01/24 02:43:13;;;;;;;32.10;20.05;;;;;;;0.98;100.00;103593.91;5054699;28;20029;-76
2023/01/24 02:45:39;;;;;;;32.75;21.25;;;;;;;1.01;100.00;103585.47;5054404;28;20021;-76
2023/01/24 02:48:04;;;;;;;32.90;21.33;;;;;;;1.01;100.00;103586.34;5054353;28;20496;-76
2023/01/24 02:53:29;;;;;;;32.35;21.38;;;;;;;1.00;100.00;103599.25;5054532;28;20033;-77
2023/01/24 02:53:29;;;;;;;33.85;22.13;;;;;;;0.99;100.00;103600.97;5054015;28;20044;-76
2023/01/24 02:58:38;;;;;;;32.60;21.20;;;;;;;1.01;100.00;103599.38;5052502;28;20051;-77
2023/01/24 03:01:03;;;;;;;32.72;21.10;;;;;;;0.99;100.00;103593.16;5054185;28;20424;-76
2023/01/24 03:03:29;;;;;;;32.35;20.88;;;;;;;1.00;100.00;103587.13;5054133;28;20033;-77
2023/01/24 03:05:57;;;;;;;32.58;20.73;;;;;;;1.00;100.00;103584.53;5054281;28;20029;-77
2023/01/24 03:08:25;;;;;;;32.47;20.83;;;;;;;0.97;100.00;103591.16;5053881;28;20028;-87
2023/01/24 03:10:50;;;;;;;33.03;21.50;;;;;;;0.96;100.00;103590.28;5053150;28;20039;-77
2023/01/24 03:35:09;;;;;;;34.13;23.05;;;;;;;0.85;100.00;103585.81;5051617;28;20060;-76
2023/01/24 03:40:19;;;;;;;34.28;22.95;;;;;;;0.84;100.00;103586.56;5053698;28;20066;-74
2023/01/24 03:42:47;;;;;;;35.15;23.42;;;;;;;0.83;100.00;103582.13;5053547;28;20476;-74
2023/01/24 03:45:24;;;;;;;34.80;23.35;;;;;;;0.85;100.00;103588.41;5053354;28;20090;-73
2023/01/24 03:47:55;;;;;;;34.92;23.35;;;;;;;0.81;100.00;103579.41;5053078;28;20082;-75
2023/01/24 03:53:14;;;;;;;35.35;24.23;;;;;;;0.79;100.00;103586.19;5051533;28;20163;-73
2023/01/24 03:55:39;;;;;;;35.20;23.98;;;;;;;0.79;100.00;103582.66;5053317;28;20075;-74
2023/01/24 03:58:07;;;;;;;34.08;23.20;;;;;;;0.77;100.00;103589.41;5053089;28;20028;-73
2023/01/24 04:00:33;;;;;;;33.38;22.35;;;;;;;0.79;100.00;103587.88;5052996;28;20108;-73
2023/01/24 04:02:59;;;;;;;33.42;22.35;;;;;;;0.76;100.00;103582.38;5053398;28;20087;-73
2023/01/24 04:05:25;;;;;;;32.70;21.17;;;;;;;0.76;100.00;103579.75;5053012;28;20024;-73
2023/01/24 04:07:50;;;;;;;32.75;21.27;;;;;;;0.76;100.00;103579.75;5052805;28;20063;-74
2023/01/24 04:10:16;;;;;;;31.88;20.25;;;;;;;0.74;100.00;103573.53;5053066;28;20037;-73
2023/01/24 04:12:42;;;;;;;32.30;20.30;;;;;;;0.73;100.00;103577.84;5052774;28;20083;-74
2023/01/24 04:15:08;;;;;;;33.30;21.60;;;;;;;0.74;100.00;103586.53;5052702;28;20479;-75
2023/01/24 04:17:34;;;;;;;32.38;20.77;;;;;;;0.71;100.00;103584.56;5052957;28;20056;-73
2023/01/24 04:19:59;;;;;;;32.40;20.40;;;;;;;0.69;100.00;103587.03;5052841;28;20056;-73
2023/01/24 04:22:24;;;;;;;34.55;22.33;;;;;;;0.69;100.00;103584.44;5052240;28;20569;-73
2023/01/24 04:24:50;;;;;;;33.05;21.67;;;;;;;0.72;100.00;103580.31;5052842;28;20040;-73
2023/01/24 04:27:15;;;;;;;33.97;23.40;;;;;;;0.69;100.00;103586.16;5052471;28;20056;-74
2023/01/24 04:29:40;;;;;;;32.80;21.73;;;;;;;0.70;100.00;103595.78;5052387;28;20025;-76
2023/01/24 04:32:06;;;;;;;33.05;21.98;;;;;;;0.68;100.00;103585.25;5052724;28;20063;-73
2023/01/24 04:34:31;;;;;;;32.88;21.48;;;;;;;0.69;100.00;103588.75;5052529;28;20096;-73
2023/01/24 04:36:57;;;;;;;33.40;21.65;;;;;;;0.67;100.00;103579.88;5052525;28;20025;-73
2023/01/24 04:39:22;;;;;;;33.60;22.20;;;;;;;0.66;100.00;103589.38;5052574;28;20036;-74
2023/01/24 04:41:47;;;;;;;33.63;22.23;;;;;;;0.65;100.00;103589.25;5052413;28;20071;-74
2023/01/24 04:44:13;;;;;;;33.25;21.75;;;;;;;0.64;100.00;103585.75;5052579;28;20083;-76
2023/01/24 04:46:38;;;;;;;33.67;22.67;;;;;;;0.65;100.00;103584.94;5052329;28;20494;-75
2023/01/24 04:49:03;;;;;;;33.10;21.88;;;;;;;0.63;100.00;103591.72;5052281;28;20029;-73
2023/01/24 04:51:28;;;;;;;33.22;22.15;;;;;;;0.65;100.00;103587.53;5052747;28;20086;-73
2023/01/24 04:53:54;;;;;;;32.70;21.45;;;;;;;0.64;100.00;103590.94;5052263;28;20025;-73
2023/01/24 04:56:19;;;;;;;33.05;21.65;;;;;;;0.65;100.00;103599.66;5052232;28;20029;-74
2023/01/24 04:58:45;;;;;;;32.88;21.67;;;;;;;0.62;100.00;103592.50;5052673;28;20037;-73
2023/01/24 05:01:10;;;;;;;33.03;21.85;;;;;;;0.62;100.00;103589.88;5052502;28;20132;-74
2023/01/24 05:03:35;;;;;;;32.60;21.45;;;;;;;0.64;100.00;103595.22;5052211;28;20106;-73
2023/01/24 05:06:01;;;;;;;32.60;20.92;;;;;;;0.63;100.00;103580.41;5052562;28;20090;-73
2023/01/24 05:08:26;;;;;;;33.67;21.95;;;;;;;0.67;100.00;103590.28;5052116;28;20437;-74
2023/01/24 05:10:52;;;;;;;33.00;21.65;;;;;;;0.68;100.00;103593.06;5052176;28;20033;-74
2023/01/24 05:13:17;;;;;;;32.85;21.63;;;;;;;0.67;100.00;103590.28;5052261;28;20025;-73
2023/01/24 05:15:50;;;;;;;32.67;21.50;;;;;;;0.67;100.00;103599.03;5052145;28;20059;-74
2023/01/24 05:18:16;;;;;;;32.55;20.92;;;;;;;0.64;100.00;103596.16;5052300;28;20379;-73
2023/01/24 05:20:41;;;;;;;33.33;22.02;;;;;;;0.64;100.00;103593.56;5052532;28;20131;-74
2023/01/24 05:23:06;;;;;;;32.55;21.48;;;;;;;0.63;100.00;103601.22;5051794;28;20037;-73
2023/01/24 05:25:32;;;;;;;32.50;21.50;;;;;;;0.64;100.00;103600.44;5052107;28;20083;-73
2023/01/24 05:27:57;;;;;;;32.00;20.30;;;;;;;0.64;100.00;103601.38;5052087;28;20037;-74
2023/01/24 05:30:22;;;;;;;32.38;21.40;;;;;;;0.62;100.00;103608.13;5051838;28;20495;-73
2023/01/24 05:32:48;;;;;;;32.45;20.60;;;;;;;0.59;100.00;103594.81;5052467;28;20026;-73
2023/01/24 05:35:13;;;;;;;33.80;22.23;;;;;;;0.59;100.00;103606.94;5055854;28;20035;-73
2023/01/24 05:37:39;;;;;;;32.85;21.15;;;;;;;0.59;100.00;103604.34;5055679;28;20061;-75
2023/01/24 05:40:06;;;;;;;32.92;21.58;;;;;;;0.60;100.00;103600.97;5055931;28;20029;-75
2023/01/24 05:42:31;;;;;;;32.85;21.60;;;;;;;0.57;100.00;103606.81;5055641;28;20387;-73
2023/01/24 05:44:56;;;;;;;33.20;21.65;;;;;;;0.57;100.00;103606.81;5051495;28;20025;-73
2023/01/24 05:47:22;;;;;;;32.35;21.25;;;;;;;0.56;100.00;103612.78;5055651;28;20036;-73
2023/01/24 05:49:48;;;;;;;32.90;21.25;;;;;;;0.56;100.00;103615.38;5055729;28;20033;-73
2023/01/24 05:52:18;;;;;;;32.33;21.13;;;;;;;0.61;100.00;103613.19;5055520;28;20480;-73
2023/01/24 05:54:44;;;;;;;31.38;20.02;;;;;;;0.57;100.00;103618.88;5055584;28;20028;-74
2023/01/24 05:57:09;;;;;;;32.92;20.75;;;;;;;0.56;100.00;103630.09;5055380;28;20107;-76
2023/01/24 05:59:34;;;;;;;31.63;20.20;;;;;;;0.57;100.00;103632.84;5055300;28;20132;-73
2023/01/24 06:02:00;;;;;;;31.42;20.25;;;;;;;0.55;100.00;103618.75;5055460;28;20186;-73
2023/01/24 06:04:25;;;;;;;31.50;20.23;;;;;;;0.56;100.00;103624.91;5055227;28;20040;-74
2023/01/24 06:06:50;;;;;;;31.17;20.33;;;;;;;0.57;100.00;103626.69;5055178;28;20027;-73
2023/01/24 06:09:15;;;;;;;31.55;20.30;;;;;;;0.56;100.00;103631.00;5055261;28;20112;-74
2023/01/24 06:11:41;;;;;;;32.05;21.05;;;;;;;0.51;100.00;103629.66;5055375;28;20123;-74
2023/01/24 06:14:06;;;;;;;32.03;20.55;;;;;;;0.57;100.00;103632.84;5054933;28;20115;-74
2023/01/24 06:16:32;;;;;;;31.35;20.08;;;;;;;0.51;100.00;103630.59;5055227;28;20108;-74
2023/01/24 06:18:57;;;;;;;31.13;20.35;;;;;;;0.52;100.00;103641.91;5055183;28;20029;-74
2023/01/24 06:21:32;;;;;;;31.58;20.05;;;;;;;0.50;100.00;103635.66;5055041;28;20029;-75
2023/01/24 06:23:57;;;;;;;31.52;20.25;;;;;;;0.56;100.00;103640.50;5050817;28;20401;-72
2023/01/24 06:26:23;;;;;;;32.80;21.20;;;;;;;0.48;100.00;103638.13;5054977;28;20107;-74
2023/01/24 06:28:49;;;;;;;31.88;20.38;;;;;;;0.47;100.00;103632.78;5054528;28;20052;-74
2023/01/24 06:31:31;;;;;;;32.58;21.20;;;;;;;0.48;100.00;103639.81;5054946;28;20083;-73
2023/01/24 06:34:19;;;;;;;32.20;20.90;;;;;;;0.48;100.00;103639.81;5054945;28;20025;-75
2023/01/24 06:36:47;;;;;;;32.45;20.60;;;;;;;0.49;100.00;103654.66;5053160;28;20033;-73
2023/01/24 06:39:15;;;;;;;32.92;21.30;;;;;;;0.47;100.00;103657.13;5054522;28;20059;-73
2023/01/24 06:41:41;;;;;;;32.35;21.02;;;;;;;0.43;100.00;103655.00;5054597;28;20033;-73
2023/01/24 06:44:10;;;;;;;32.53;21.67;;;;;;;0.43;100.00;103656.72;5053982;28;20112;-73
2023/01/24 06:46:35;;;;;;;33.28;21.63;;;;;;;0.44;100.00;103656.84;5052288;28;20021;-77
2023/01/24 06:49:00;;;;;;;33.92;21.13;;;;;;;0.44;100.00;103653.34;5053152;28;20039;-77
2023/01/24 06:51:26;;;;;;;33.03;21.58;;;;;;;0.40;100.00;103654.75;5054572;28;20036;-76
2023/01/24 06:53:51;;;;;;;33.70;22.08;;;;;;;0.41;100.00;103656.56;5055886;28;20077;-77
2023/01/24 06:56:17;;;;;;;33.90;22.27;;;;;;;0.37;100.00;103653.56;5053730;28;20108;-77
2023/01/24 06:58:42;;;;;;;33.20;22.58;;;;;;;0.36;100.00;103656.94;5055719;28;20041;-77
2023/01/24 07:01:07;;;;;;;34.80;23.08;;;;;;;0.37;100.00;103650.97;5006198;28;20032;-77
2023/01/24 07:03:33;;;;;;;34.80;23.45;;;;;;;0.38;100.00;103647.56;5054148;28;20029;-78
2023/01/24 07:05:58;;;;;;;34.75;23.88;;;;;;;0.40;100.00;103654.75;5053108;28;20033;-76
2023/01/24 07:08:24;;;;;;;34.70;23.33;;;;;;;0.39;100.00;103654.59;5052393;28;20083;-76
2023/01/24 07:10:49;;;;;;;34.45;23.25;;;;;;;0.42;100.00;103665.28;5053053;28;20044;-77
2023/01/24 07:13:15;;;;;;;33.53;22.23;;;;;;;0.36;100.00;103660.44;5053255;28;20090;-77
2023/01/24 07:15:40;;;;;;;34.20;22.90;;;;;;;0.34;100.00;103664.59;5062928;28;20036;-77
2023/01/24 07:18:12;;;;;;;33.28;21.92;;;;;;;0.38;100.00;103661.50;5056557;28;20120;-76
2023/01/24 07:20:37;;;;;;;33.00;21.98;;;;;;;0.33;100.00;103667.97;5053332;28;20357;-75
2023/01/24 07:23:04;;;;;;;33.55;22.35;;;;;;;0.30;100.00;103678.09;5034053;28;20099;-77
2023/01/24 07:25:30;;;;;;;33.30;22.40;;;;;;;0.29;100.00;103682.41;5053368;28;20037;-76
2023/01/24 07:27:56;;;;;;;33.10;21.90;;;;;;;0.28;100.00;103683.16;5056651;28;20033;-76
2023/01/24 07:30:21;;;;;;;32.47;20.77;;;;;;;0.28;100.00;103677.97;5056714;28;20029;-76
2023/01/24 07:32:47;;;;;;;33.33;22.25;;;;;;;0.30;100.00;103689.41;5056448;28;20025;-76
2023/01/24 07:35:12;;;;;;;33.60;22.27;;;;;;;0.27;100.00;103686.53;5052116;28;20387;-76
2023/01/24 07:37:39;;;;;;;33.83;21.90;;;;;;;0.27;100.00;103686.53;5055903;28;20060;-75
2023/01/24 07:40:05;;;;;;;33.70;21.77;;;;;;;0.31;100.00;103693.84;5052980;28;20472;-76
2023/01/24 07:42:30;;;;;;;33.20;22.58;;;;;;;0.28;100.00;103696.19;5052430;28;20391;-76
2023/01/24 07:44:56;;;;;;;32.80;22.08;;;;;;;0.31;100.00;103695.56;5053792;28;20032;-75
2023/01/24 07:47:23;;;;;;;33.25;22.10;;;;;;;0.28;100.00;103703.09;5052172;28;20037;-75
2023/01/24 07:49:48;;;;;;;32.33;21.50;;;;;;;0.24;100.00;103698.38;5052363;28;20120;-75
2023/01/24 07:52:14;;;;;;;33.13;20.83;;;;;;;0.25;100.00;103702.78;5034660;28;20125;-77
2023/01/24 07:54:39;;;;;;;33.17;21.08;;;;;;;0.27;100.00;103704.75;5054635;28;20031;-75
2023/01/24 07:57:05;;;;;;;32.67;20.80;;;;;;;0.24;100.00;103704.47;5051980;28;20285;-76
2023/01/24 07:59:30;;;;;;;33.08;21.58;;;;;;;0.24;100.00;103704.47;5053396;28;20039;-75
2023/01/24 08:01:55;;;;;;;32.30;21.30;;;;;;;0.23;100.00;103715.66;5052454;28;20037;-80
2023/01/24 08:04:21;;;;;;;33.78;21.58;;;;;;;0.22;100.00;103721.66;5054203;28;20025;-76
2023/01/24 08:09:30;;;;;;;35.35;22.98;;;;;;;0.24;100.00;103720.09;5054628;28;20521;-76
2023/01/24 08:11:56;;;;;;;34.80;23.17;;;;;;;0.27;100.00;103715.16;5051610;28;20029;-76
2023/01/24 08:14:22;;;;;;;34.25;23.17;;;;;;;0.28;100.00;103719.59;5051639;28;20025;-76
2023/01/24 08:16:48;;;;;;;34.05;23.02;;;;;;;0.30;100.00;103720.66;5052166;28;20471;-76
2023/01/24 08:19:14;;;;;;;35.13;23.30;;;;;;;0.28;100.00;103710.91;5051907;28;20078;-75
2023/01/24 08:21:39;;;;;;;33.70;22.75;;;;;;;0.29;100.00;103724.03;5052068;28;20021;-77
2023/01/24 08:24:05;;;;;;;33.42;22.05;;;;;;;0.28;100.00;103714.41;5057300;28;20126;-76
2023/01/24 08:26:30;;;;;;;34.00;22.02;;;;;;;0.30;100.00;103723.25;5054540;28;20120;-76
2023/01/24 08:28:56;;;;;;;32.63;21.73;;;;;;;0.30;100.00;103717.13;5053105;28;20025;-75
2023/01/24 08:31:21;;;;;;;34.47;22.90;;;;;;;0.30;100.00;103720.66;5052527;28;20033;-75
2023/01/24 08:33:46;;;;;;;34.45;22.30;;;;;;;0.28;100.00;103724.81;5058083;28;20108;-74
2023/01/24 08:36:12;;;;;;;35.00;22.42;;;;;;;0.30;100.00;103731.06;5054268;28;20032;-74
2023/01/24 08:38:37;;;;;;;34.10;22.00;;;;;;;0.29;100.00;103733.50;5057420;28;20021;-74
2023/01/24 08:41:03;;;;;;;33.60;21.58;;;;;;;0.27;100.00;103732.47;5055181;28;20029;-74
2023/01/24 08:43:29;;;;;;;34.85;22.67;;;;;;;0.30;100.00;103730.16;5055755;28;20126;-74
2023/01/24 08:45:55;;;;;;;33.33;21.23;;;;;;;0.33;100.00;103738.25;5052292;28;20475;-74
2023/01/24 08:48:21;;;;;;;34.25;22.40;;;;;;;0.30;100.00;103740.56;5055132;28;20032;-74
2023/01/24 08:50:46;;;;;;;34.67;22.10;;;;;;;0.32;100.00;103734.72;5051810;28;20491;-74
2023/01/24 08:53:11;;;;;;;34.08;21.77;;;;;;;0.36;100.00;103741.13;5051283;28;20489;-74
2023/01/24 08:55:37;;;;;;;33.65;21.83;;;;;;;0.37;100.00;103742.06;5051604;28;20186;-73
2023/01/24 08:58:03;;;;;;;34.67;22.30;;;;;;;0.41;100.00;103757.16;5038611;28;20032;-73
2023/01/24 09:00:29;;;;;;;33.53;21.75;;;;;;;0.41;100.00;103751.94;5054557;28;20021;-73
2023/01/24 09:02:58;;;;;;;34.17;22.42;;;;;;;0.42;100.00;103754.69;5057938;28;20522;-73
2023/01/24 09:05:23;;;;;;;34.47;22.02;;;;;;;0.42;100.00;103751.19;5052584;28;20411;-73
2023/01/24 09:07:49;;;;;;;33.78;21.90;;;;;;;0.41;100.00;103758.09;5052454;28;20032;-74
2023/01/24 09:10:14;;;;;;;33.90;21.95;;;;;;;0.44;100.00;103754.88;5038348;28;20033;-73
2023/01/24 09:12:40;;;;;;;33.20;21.45;;;;;;;0.49;100.00;103761.38;5056416;28;20021;-73
2023/01/24 09:15:07;;;;;;;34.45;21.52;;;;;;;0.48;100.00;103754.34;5056138;28;20515;-73
2023/01/24 09:17:34;;;;;;;32.90;21.30;;;;;;;0.50;100.00;103750.22;5056296;28;20080;-73
2023/01/24 09:19:59;;;;;;;32.53;21.23;;;;;;;0.53;100.00;103750.50;5056216;28;20035;-81
2023/01/24 09:22:25;;;;;;;33.65;22.10;;;;;;;0.53;100.00;103755.69;5055716;28;20033;-82
2023/01/24 09:24:50;;;;;;;32.78;20.95;;;;;;;0.51;100.00;103752.00;5052020;28;20049;-76
2023/01/24 09:27:15;;;;;;;33.13;21.23;;;;;;;0.54;100.00;103757.53;5054978;28;20056;-75
2023/01/24 09:29:41;;;;;;;33.42;20.98;;;;;;;0.48;100.00;103751.75;5058520;28;20020;-75
2023/01/24 09:32:06;;;;;;;33.00;21.33;;;;;;;0.49;100.00;103754.47;5054579;28;20100;-75
2023/01/24 09:34:31;;;;;;;34.15;21.52;;;;;;;0.48;100.00;103749.13;5038610;28;20033;-75
2023/01/24 09:36:57;;;;;;;32.88;21.20;;;;;;;0.53;100.00;103760.91;5055098;28;20025;-75
2023/01/24 09:39:22;;;;;;;33.53;20.80;;;;;;;0.52;100.00;103762.59;5057028;28;20436;-76
2023/01/24 09:42:15;;;;;;;33.13;20.65;;;;;;;0.56;100.00;103763.78;5054852;28;20035;-75
2023/01/24 09:44:59;;;;;;;32.10;20.13;;;;;;;0.57;100.00;103765.63;5053264;28;20475;-75
2023/01/24 09:47:41;;;;;;;32.35;19.88;;;;;;;0.62;100.00;103763.44;5056611;28;20048;-76
2023/01/24 09:50:15;;;;;;;32.45;20.80;;;;;;;0.64;100.00;103757.59;5057388;28;20025;-76
2023/01/24 09:52:43;;;;;;;33.33;20.58;;;;;;;0.66;100.00;103763.84;5056829;28;20476;-76
2023/01/24 09:55:18;;;;;;;31.25;19.98;;;;;;;0.68;100.00;103772.75;5051253;28;20490;-75
2023/01/24 09:58:06;;;;;;;31.58;19.77;;;;;;;0.77;100.00;103766.50;5055262;28;20028;-76
2023/01/24 10:00:36;;;;;;;31.05;19.35;;;;;;;0.71;100.00;103771.19;5054308;28;20454;-75
2023/01/24 10:03:03;;;;;;;32.38;20.05;;;;;;;0.72;100.00;103775.63;5056619;28;20028;-76
2023/01/24 10:05:38;;;;;;;31.50;19.25;;;;;;;0.75;100.00;103783.69;5055538;28;20021;-76
2023/01/24 10:08:08;;;;;;;30.85;18.70;;;;;;;0.74;100.00;103781.88;5057742;28;20112;-75
2023/01/24 10:10:44;;;;;;;30.33;18.10;;;;;;;0.77;100.00;103782.13;5044515;28;20476;-76
2023/01/24 10:13:50;;;;;;;29.95;18.88;;;;;;;0.82;100.00;103775.69;5050893;28;20021;-75
2023/01/24 10:16:53;;;;;;;29.58;17.45;;;;;;;0.83;100.00;103775.81;5060668;28;20055;-75
2023/01/24 10:19:18;;;;;;;29.73;17.40;;;;;;;0.75;100.00;103775.88;5056683;28;20127;-74
2023/01/24 10:22:11;;;;;;;29.73;17.58;;;;;;;0.81;100.00;103776.44;5054379;28;20519;-76
2023/01/24 10:24:41;;;;;;;29.85;18.00;;;;;;;0.80;100.00;103777.22;5053508;28;20609;-75
2023/01/24 10:27:38;;;;;;;29.02;17.45;;;;;;;0.77;100.00;103779.53;5062175;28;20055;-76
2023/01/24 10:30:20;;;;;;;28.88;17.00;;;;;;;0.78;100.00;103783.97;5038925;28;20049;-76
2023/01/24 10:32:50;;;;;;;30.02;17.42;;;;;;;0.78;100.00;103789.19;5054237;28;20028;-75
2023/01/24 10:35:28;;;;;;;31.15;19.05;;;;;;;0.78;100.00;103782.28;5055435;28;20029;-76
2023/01/24 10:37:58;;;;;;;31.00;19.27;;;;;;;0.80;100.00;103785.03;5057580;28;20505;-76
2023/01/24 10:40:24;;;;;;;29.70;18.08;;;;;;;0.83;100.00;103768.00;5056617;28;20078;-76
2023/01/24 10:42:50;;;;;;;31.05;19.25;;;;;;;0.80;100.00;103772.94;5052528;28;20036;-77
2023/01/24 10:45:30;;;;;;;29.73;18.30;;;;;;;0.79;100.00;103772.81;5060492;28;20033;-76
2023/01/24 10:48:11;;;;;;;30.80;18.48;;;;;;;0.78;100.00;103770.97;5053687;28;20391;-76
2023/01/24 10:50:42;;;;;;;29.63;17.83;;;;;;;0.75;100.00;103771.59;5051551;28;20068;-76
2023/01/24 10:53:13;;;;;;;29.17;17.50;;;;;;;0.78;100.00;103764.03;5053313;28;20021;-75
2023/01/24 10:55:39;;;;;;;28.90;16.80;;;;;;;0.78;100.00;103763.16;5059436;28;20033;-73
2023/01/24 10:58:23;;;;;;;29.25;16.80;;;;;;;0.88;100.00;103765.81;5056653;28;20108;-73
2023/01/24 11:00:57;;;;;;;30.02;18.23;;;;;;;0.79;100.00;103763.28;5051743;28;20024;-73
2023/01/24 11:03:29;;;;;;;29.20;17.05;;;;;;;0.82;100.00;103766.16;5054020;28;20119;-76
2023/01/24 11:05:57;;;;;;;28.20;16.60;;;;;;;0.84;100.00;103769.81;5054078;28;20025;-74
2023/01/24 11:08:26;;;;;;;28.25;16.90;;;;;;;0.89;100.00;103766.72;5053960;28;20059;-76
2023/01/24 11:10:58;;;;;;;29.38;16.83;;;;;;;0.92;100.00;103760.09;5054128;28;20426;-73
2023/01/24 11:13:33;;;;;;;29.48;17.50;;;;;;;0.95;100.00;103762.06;5049997;28;20017;-75
2023/01/24 11:16:21;;;;;;;28.13;16.20;;;;;;;0.99;100.00;103758.94;5052958;28;20407;-74
2023/01/24 11:19:08;;;;;;;28.02;16.30;;;;;;;1.06;100.00;103750.00;5054784;28;20025;-75
2023/01/24 11:21:49;;;;;;;28.40;16.27;;;;;;;1.12;100.00;103755.75;5051766;28;20037;-75
2023/01/24 11:24:15;;;;;;;26.90;15.55;;;;;;;1.14;100.00;103738.59;5057740;28;20407;-75
2023/01/24 11:26:54;;;;;;;28.33;16.50;;;;;;;1.10;100.00;103745.19;5052457;28;20036;-74
2023/01/24 11:29:20;;;;;;;28.23;16.27;;;;;;;1.12;100.00;103751.47;5056198;28;20056;-75
2023/01/24 11:31:53;;;;;;;26.95;15.35;;;;;;;1.09;100.00;103735.53;5055820;28;20029;-75
2023/01/24 11:34:31;;;;;;;;;;;;;;;1.12;100.00;103730.63;5059418;28;20057;-74
2023/01/24 11:37:05;;;;;;;28.98;16.10;;;;;;;1.08;100.00;103738.94;5053705;28;19972;-74
2023/01/24 11:39:41;;;;;;;28.52;16.60;;;;;;;1.12;100.00;103734.91;5051640;28;20116;-73
2023/01/24 11:42:11;;;;;;;27.25;15.85;;;;;;;1.12;100.00;103735.84;5051519;28;20094;-74
2023/01/24 11:44:57;;;;;;;27.80;16.20;;;;;;;1.17;100.00;103734.53;5057899;28;20031;-74
2023/01/24 11:47:33;;;;;;;27.85;15.98;;;;;;;1.03;100.00;103728.13;5050261;28;20053;-74
2023/01/24 11:50:28;;;;;;;27.90;16.50;;;;;;;1.07;100.00;103723.19;5053193;28;20024;-74
2023/01/24 11:53:14;;;;;;;28.42;16.80;;;;;;;1.06;100.00;103734.38;5046349;28;20021;-77